sensor_id;sensor_type;location;lat;lon;timestamp;P1;durP1;ratioP1;P2;durP2;ratioP2
61756;SDS011;57225;61.460;24.060;2023-04-25T00:02:41;4.20;;;3.30;;
61756;SDS011;57225;61.460;24.060;2023-04-25T00:05:26;6.40;;;3.33;;
61756;SDS011;57225;61.460;24.060;2023-04-25T00:08:11;8.27;;;3.45;;
61756;SDS011;57225;61.460;24.060;2023-04-25T00:10:56;6.78;;;3.55;;
61756;SDS011;57225;61.460;24.060;2023-04-25T00:13:41;5.93;;;3.45;;
61756;SDS011;57225;61.460;24.060;2023-04-25T00:16:26;4.75;;;3.33;;
61756;SDS011;57225;61.460;24.060;2023-04-25T00:19:10;7.38;;;3.38;;
61756;SDS011;57225;61.460;24.060;2023-04-25T00:21:56;5.13;;;3.30;;
61756;SDS011;57225;61.460;24.060;2023-04-25T00:24:41;6.28;;;3.60;;
61756;SDS011;57225;61.460;24.060;2023-04-25T00:27:26;9.00;;;3.50;;
61756;SDS011;57225;61.460;24.060;2023-04-25T00:30:11;5.22;;;3.75;;
61756;SDS011;57225;61.460;24.060;2023-04-25T00:32:56;5.75;;;3.17;;
61756;SDS011;57225;61.460;24.060;2023-04-25T00:35:40;4.07;;;3.08;;
61756;SDS011;57225;61.460;24.060;2023-04-25T00:38:26;5.22;;;3.50;;
61756;SDS011;57225;61.460;24.060;2023-04-25T00:41:10;6.05;;;3.85;;
61756;SDS011;57225;61.460;24.060;2023-04-25T00:43:55;6.55;;;3.38;;
61756;SDS011;57225;61.460;24.060;2023-04-25T00:46:41;5.25;;;3.58;;
61756;SDS011;57225;61.460;24.060;2023-04-25T00:49:26;5.13;;;3.40;;
61756;SDS011;57225;61.460;24.060;2023-04-25T00:52:10;5.07;;;3.55;;
61756;SDS011;57225;61.460;24.060;2023-04-25T00:54:55;5.43;;;3.60;;
61756;SDS011;57225;61.460;24.060;2023-04-25T00:57:39;5.28;;;3.30;;
61756;SDS011;57225;61.460;24.060;2023-04-25T01:00:24;5.22;;;3.40;;
61756;SDS011;57225;61.460;24.060;2023-04-25T01:03:09;5.25;;;3.58;;
61756;SDS011;57225;61.460;24.060;2023-04-25T01:05:54;7.15;;;3.40;;
61756;SDS011;57225;61.460;24.060;2023-04-25T01:08:39;6.13;;;3.95;;
61756;SDS011;57225;61.460;24.060;2023-04-25T01:11:24;8.40;;;3.72;;
61756;SDS011;57225;61.460;24.060;2023-04-25T01:14:08;5.22;;;3.55;;
61756;SDS011;57225;61.460;24.060;2023-04-25T01:16:53;5.93;;;4.25;;
61756;SDS011;57225;61.460;24.060;2023-04-25T01:19:38;6.53;;;4.15;;
61756;SDS011;57225;61.460;24.060;2023-04-25T01:22:23;7.15;;;4.05;;
61756;SDS011;57225;61.460;24.060;2023-04-25T01:25:07;9.25;;;4.05;;
61756;SDS011;57225;61.460;24.060;2023-04-25T01:27:53;7.15;;;4.45;;
61756;SDS011;57225;61.460;24.060;2023-04-25T01:30:37;6.97;;;4.15;;
61756;SDS011;57225;61.460;24.060;2023-04-25T01:33:23;6.90;;;4.03;;
61756;SDS011;57225;61.460;24.060;2023-04-25T01:36:07;6.45;;;4.20;;
61756;SDS011;57225;61.460;24.060;2023-04-25T01:38:52;6.50;;;4.00;;
61756;SDS011;57225;61.460;24.060;2023-04-25T01:41:37;7.63;;;4.70;;
61756;SDS011;57225;61.460;24.060;2023-04-25T01:44:22;10.98;;;4.68;;
61756;SDS011;57225;61.460;24.060;2023-04-25T01:47:06;6.50;;;4.30;;
61756;SDS011;57225;61.460;24.060;2023-04-25T01:49:51;8.07;;;4.57;;
61756;SDS011;57225;61.460;24.060;2023-04-25T01:52:35;6.63;;;4.18;;
61756;SDS011;57225;61.460;24.060;2023-04-25T01:55:20;9.00;;;4.88;;
61756;SDS011;57225;61.460;24.060;2023-04-25T01:58:04;13.27;;;5.18;;
61756;SDS011;57225;61.460;24.060;2023-04-25T02:00:53;8.07;;;4.60;;
61756;SDS011;57225;61.460;24.060;2023-04-25T02:03:37;9.48;;;4.80;;
61756;SDS011;57225;61.460;24.060;2023-04-25T02:06:22;9.77;;;5.10;;
61756;SDS011;57225;61.460;24.060;2023-04-25T02:09:06;7.32;;;4.65;;
61756;SDS011;57225;61.460;24.060;2023-04-25T02:11:52;8.35;;;4.40;;
61756;SDS011;57225;61.460;24.060;2023-04-25T02:14:37;8.73;;;4.47;;
61756;SDS011;57225;61.460;24.060;2023-04-25T02:17:21;11.55;;;4.97;;
61756;SDS011;57225;61.460;24.060;2023-04-25T02:20:06;7.65;;;4.65;;
61756;SDS011;57225;61.460;24.060;2023-04-25T02:22:51;9.07;;;4.95;;
61756;SDS011;57225;61.460;24.060;2023-04-25T02:25:36;13.68;;;5.00;;
61756;SDS011;57225;61.460;24.060;2023-04-25T02:28:20;7.57;;;4.53;;
61756;SDS011;57225;61.460;24.060;2023-04-25T02:31:04;11.70;;;4.97;;
61756;SDS011;57225;61.460;24.060;2023-04-25T02:33:49;10.63;;;5.18;;
61756;SDS011;57225;61.460;24.060;2023-04-25T02:36:34;7.15;;;4.35;;
61756;SDS011;57225;61.460;24.060;2023-04-25T02:39:19;7.30;;;4.65;;
61756;SDS011;57225;61.460;24.060;2023-04-25T02:42:05;7.40;;;4.75;;
61756;SDS011;57225;61.460;24.060;2023-04-25T02:44:50;8.27;;;5.13;;
61756;SDS011;57225;61.460;24.060;2023-04-25T02:47:34;10.35;;;5.50;;
61756;SDS011;57225;61.460;24.060;2023-04-25T02:50:19;14.30;;;5.38;;
61756;SDS011;57225;61.460;24.060;2023-04-25T02:53:03;8.82;;;4.57;;
61756;SDS011;57225;61.460;24.060;2023-04-25T02:55:48;11.15;;;4.82;;
61756;SDS011;57225;61.460;24.060;2023-04-25T02:58:33;8.90;;;4.75;;
61756;SDS011;57225;61.460;24.060;2023-04-25T03:01:18;8.30;;;5.03;;
61756;SDS011;57225;61.460;24.060;2023-04-25T03:04:02;10.25;;;5.65;;
61756;SDS011;57225;61.460;24.060;2023-04-25T03:06:47;9.07;;;5.13;;
61756;SDS011;57225;61.460;24.060;2023-04-25T03:09:31;12.27;;;5.43;;
61756;SDS011;57225;61.460;24.060;2023-04-25T03:12:16;7.95;;;4.90;;
61756;SDS011;57225;61.460;24.060;2023-04-25T03:15:01;9.30;;;5.90;;
61756;SDS011;57225;61.460;24.060;2023-04-25T03:17:45;8.73;;;5.45;;
61756;SDS011;57225;61.460;24.060;2023-04-25T03:20:30;10.38;;;5.47;;
61756;SDS011;57225;61.460;24.060;2023-04-25T03:23:14;12.20;;;5.80;;
61756;SDS011;57225;61.460;24.060;2023-04-25T03:25:59;12.95;;;5.55;;
61756;SDS011;57225;61.460;24.060;2023-04-25T03:28:43;8.73;;;4.65;;
61756;SDS011;57225;61.460;24.060;2023-04-25T03:31:28;8.80;;;5.60;;
61756;SDS011;57225;61.460;24.060;2023-04-25T03:34:13;10.70;;;6.00;;
61756;SDS011;57225;61.460;24.060;2023-04-25T03:36:58;10.65;;;5.90;;
61756;SDS011;57225;61.460;24.060;2023-04-25T03:39:43;9.45;;;5.60;;
61756;SDS011;57225;61.460;24.060;2023-04-25T03:42:28;18.98;;;6.18;;
61756;SDS011;57225;61.460;24.060;2023-04-25T03:45:12;13.15;;;6.32;;
61756;SDS011;57225;61.460;24.060;2023-04-25T03:47:57;9.63;;;5.78;;
61756;SDS011;57225;61.460;24.060;2023-04-25T03:50:41;10.07;;;6.18;;
61756;SDS011;57225;61.460;24.060;2023-04-25T03:53:26;8.55;;;5.72;;
61756;SDS011;57225;61.460;24.060;2023-04-25T03:56:10;8.15;;;5.97;;
61756;SDS011;57225;61.460;24.060;2023-04-25T03:58:55;10.60;;;6.13;;
61756;SDS011;57225;61.460;24.060;2023-04-25T04:01:39;9.07;;;5.95;;
61756;SDS011;57225;61.460;24.060;2023-04-25T04:04:24;8.02;;;5.70;;
61756;SDS011;57225;61.460;24.060;2023-04-25T04:07:09;10.02;;;5.95;;
61756;SDS011;57225;61.460;24.060;2023-04-25T04:09:53;13.40;;;6.47;;
61756;SDS011;57225;61.460;24.060;2023-04-25T04:12:38;13.45;;;6.13;;
61756;SDS011;57225;61.460;24.060;2023-04-25T04:15:23;8.77;;;5.82;;
61756;SDS011;57225;61.460;24.060;2023-04-25T04:18:08;10.18;;;6.13;;
61756;SDS011;57225;61.460;24.060;2023-04-25T04:20:52;10.20;;;6.75;;
61756;SDS011;57225;61.460;24.060;2023-04-25T04:23:39;10.82;;;6.35;;
61756;SDS011;57225;61.460;24.060;2023-04-25T04:26:23;10.80;;;6.57;;
61756;SDS011;57225;61.460;24.060;2023-04-25T04:29:09;8.82;;;5.78;;
61756;SDS011;57225;61.460;24.060;2023-04-25T04:31:54;9.77;;;5.57;;
61756;SDS011;57225;61.460;24.060;2023-04-25T04:34:38;9.75;;;6.18;;
61756;SDS011;57225;61.460;24.060;2023-04-25T04:37:23;7.75;;;5.72;;
61756;SDS011;57225;61.460;24.060;2023-04-25T04:40:07;9.10;;;5.82;;
61756;SDS011;57225;61.460;24.060;2023-04-25T04:42:52;8.32;;;5.75;;
61756;SDS011;57225;61.460;24.060;2023-04-25T04:45:37;8.95;;;5.95;;
61756;SDS011;57225;61.460;24.060;2023-04-25T04:48:24;7.78;;;5.72;;
61756;SDS011;57225;61.460;24.060;2023-04-25T04:51:08;9.18;;;5.70;;
61756;SDS011;57225;61.460;24.060;2023-04-25T04:53:53;8.18;;;4.80;;
61756;SDS011;57225;61.460;24.060;2023-04-25T04:56:42;9.55;;;5.60;;
61756;SDS011;57225;61.460;24.060;2023-04-25T04:59:26;8.45;;;5.32;;
61756;SDS011;57225;61.460;24.060;2023-04-25T05:02:10;8.02;;;4.72;;
61756;SDS011;57225;61.460;24.060;2023-04-25T05:04:55;7.07;;;4.97;;
61756;SDS011;57225;61.460;24.060;2023-04-25T05:07:40;11.05;;;5.30;;
61756;SDS011;57225;61.460;24.060;2023-04-25T05:10:25;6.43;;;4.60;;
61756;SDS011;57225;61.460;24.060;2023-04-25T05:13:09;6.65;;;4.38;;
61756;SDS011;57225;61.460;24.060;2023-04-25T05:15:53;8.60;;;5.20;;
61756;SDS011;57225;61.460;24.060;2023-04-25T05:18:39;5.82;;;4.43;;
61756;SDS011;57225;61.460;24.060;2023-04-25T05:21:24;7.00;;;4.22;;
61756;SDS011;57225;61.460;24.060;2023-04-25T05:24:09;7.82;;;4.93;;
61756;SDS011;57225;61.460;24.060;2023-04-25T05:26:54;7.65;;;4.70;;
61756;SDS011;57225;61.460;24.060;2023-04-25T05:29:38;10.48;;;4.68;;
61756;SDS011;57225;61.460;24.060;2023-04-25T05:32:23;6.55;;;4.55;;
61756;SDS011;57225;61.460;24.060;2023-04-25T05:35:08;6.85;;;4.65;;
61756;SDS011;57225;61.460;24.060;2023-04-25T05:37:53;7.25;;;4.40;;
61756;SDS011;57225;61.460;24.060;2023-04-25T05:40:37;6.03;;;4.30;;
61756;SDS011;57225;61.460;24.060;2023-04-25T05:43:22;6.68;;;4.80;;
61756;SDS011;57225;61.460;24.060;2023-04-25T05:46:06;7.70;;;4.60;;
61756;SDS011;57225;61.460;24.060;2023-04-25T05:48:51;5.60;;;4.15;;
61756;SDS011;57225;61.460;24.060;2023-04-25T05:51:35;6.45;;;4.03;;
61756;SDS011;57225;61.460;24.060;2023-04-25T05:54:20;6.10;;;4.00;;
61756;SDS011;57225;61.460;24.060;2023-04-25T05:57:05;6.45;;;4.10;;
61756;SDS011;57225;61.460;24.060;2023-04-25T05:59:51;6.03;;;4.22;;
61756;SDS011;57225;61.460;24.060;2023-04-25T06:02:35;7.80;;;4.53;;
61756;SDS011;57225;61.460;24.060;2023-04-25T06:05:20;5.63;;;4.15;;
61756;SDS011;57225;61.460;24.060;2023-04-25T06:08:05;4.45;;;3.40;;
61756;SDS011;57225;61.460;24.060;2023-04-25T06:10:50;6.93;;;4.03;;
61756;SDS011;57225;61.460;24.060;2023-04-25T06:13:34;7.75;;;3.88;;
61756;SDS011;57225;61.460;24.060;2023-04-25T06:16:19;6.80;;;4.28;;
61756;SDS011;57225;61.460;24.060;2023-04-25T06:19:04;6.07;;;3.80;;
61756;SDS011;57225;61.460;24.060;2023-04-25T06:21:48;6.18;;;3.80;;
61756;SDS011;57225;61.460;24.060;2023-04-25T06:24:33;4.72;;;3.38;;
61756;SDS011;57225;61.460;24.060;2023-04-25T06:27:19;5.97;;;3.90;;
61756;SDS011;57225;61.460;24.060;2023-04-25T06:30:03;5.55;;;3.38;;
61756;SDS011;57225;61.460;24.060;2023-04-25T06:32:48;5.45;;;3.60;;
61756;SDS011;57225;61.460;24.060;2023-04-25T06:35:33;4.63;;;3.25;;
61756;SDS011;57225;61.460;24.060;2023-04-25T06:38:18;5.15;;;3.60;;
61756;SDS011;57225;61.460;24.060;2023-04-25T06:41:03;4.10;;;3.10;;
61756;SDS011;57225;61.460;24.060;2023-04-25T06:43:47;6.15;;;3.50;;
61756;SDS011;57225;61.460;24.060;2023-04-25T06:46:31;5.35;;;3.97;;
61756;SDS011;57225;61.460;24.060;2023-04-25T06:49:17;4.50;;;3.53;;
61756;SDS011;57225;61.460;24.060;2023-04-25T06:52:01;5.30;;;3.60;;
61756;SDS011;57225;61.460;24.060;2023-04-25T06:54:47;6.68;;;3.90;;
61756;SDS011;57225;61.460;24.060;2023-04-25T06:57:32;6.28;;;4.00;;
61756;SDS011;57225;61.460;24.060;2023-04-25T07:00:17;5.00;;;3.60;;
61756;SDS011;57225;61.460;24.060;2023-04-25T07:03:02;5.05;;;3.50;;
61756;SDS011;57225;61.460;24.060;2023-04-25T07:05:48;4.00;;;3.22;;
61756;SDS011;57225;61.460;24.060;2023-04-25T07:08:32;6.20;;;3.50;;
61756;SDS011;57225;61.460;24.060;2023-04-25T07:11:17;5.25;;;3.42;;
61756;SDS011;57225;61.460;24.060;2023-04-25T07:14:01;5.97;;;3.97;;
61756;SDS011;57225;61.460;24.060;2023-04-25T07:16:46;6.45;;;3.80;;
61756;SDS011;57225;61.460;24.060;2023-04-25T07:19:31;6.25;;;3.85;;
61756;SDS011;57225;61.460;24.060;2023-04-25T07:22:16;5.70;;;3.72;;
61756;SDS011;57225;61.460;24.060;2023-04-25T07:25:01;5.35;;;3.72;;
61756;SDS011;57225;61.460;24.060;2023-04-25T07:27:46;5.70;;;4.03;;
61756;SDS011;57225;61.460;24.060;2023-04-25T07:30:31;6.75;;;3.97;;
61756;SDS011;57225;61.460;24.060;2023-04-25T07:33:15;6.35;;;4.75;;
61756;SDS011;57225;61.460;24.060;2023-04-25T07:36:00;8.73;;;6.75;;
61756;SDS011;57225;61.460;24.060;2023-04-25T07:38:45;9.20;;;7.25;;
61756;SDS011;57225;61.460;24.060;2023-04-25T07:41:29;9.95;;;6.78;;
61756;SDS011;57225;61.460;24.060;2023-04-25T07:44:15;8.50;;;7.05;;
61756;SDS011;57225;61.460;24.060;2023-04-25T07:46:59;8.88;;;6.88;;
61756;SDS011;57225;61.460;24.060;2023-04-25T07:49:44;8.75;;;6.25;;
61756;SDS011;57225;61.460;24.060;2023-04-25T07:52:29;7.00;;;5.78;;
61756;SDS011;57225;61.460;24.060;2023-04-25T07:55:14;9.65;;;6.43;;
61756;SDS011;57225;61.460;24.060;2023-04-25T07:57:58;9.65;;;5.90;;
61756;SDS011;57225;61.460;24.060;2023-04-25T08:00:44;7.13;;;5.63;;
61756;SDS011;57225;61.460;24.060;2023-04-25T08:03:28;7.57;;;5.07;;
61756;SDS011;57225;61.460;24.060;2023-04-25T08:06:13;8.13;;;5.47;;
61756;SDS011;57225;61.460;24.060;2023-04-25T08:08:58;6.20;;;4.88;;
61756;SDS011;57225;61.460;24.060;2023-04-25T08:11:42;6.47;;;4.80;;
61756;SDS011;57225;61.460;24.060;2023-04-25T08:14:28;5.82;;;4.10;;
61756;SDS011;57225;61.460;24.060;2023-04-25T08:17:19;5.72;;;4.65;;
61756;SDS011;57225;61.460;24.060;2023-04-25T08:20:03;8.60;;;4.50;;
61756;SDS011;57225;61.460;24.060;2023-04-25T08:22:49;5.95;;;4.20;;
61756;SDS011;57225;61.460;24.060;2023-04-25T08:25:34;6.30;;;4.13;;
61756;SDS011;57225;61.460;24.060;2023-04-25T08:28:18;6.50;;;5.03;;
61756;SDS011;57225;61.460;24.060;2023-04-25T08:31:03;6.22;;;4.68;;
61756;SDS011;57225;61.460;24.060;2023-04-25T08:33:47;6.47;;;4.38;;
61756;SDS011;57225;61.460;24.060;2023-04-25T08:36:33;7.15;;;4.38;;
61756;SDS011;57225;61.460;24.060;2023-04-25T08:39:17;7.47;;;4.47;;
61756;SDS011;57225;61.460;24.060;2023-04-25T08:42:06;5.82;;;3.75;;
61756;SDS011;57225;61.460;24.060;2023-04-25T08:44:54;7.25;;;4.38;;
61756;SDS011;57225;61.460;24.060;2023-04-25T08:47:40;7.55;;;4.15;;
61756;SDS011;57225;61.460;24.060;2023-04-25T08:50:26;6.30;;;4.50;;
61756;SDS011;57225;61.460;24.060;2023-04-25T08:53:12;6.15;;;4.32;;
61756;SDS011;57225;61.460;24.060;2023-04-25T08:56:01;7.07;;;3.95;;
61756;SDS011;57225;61.460;24.060;2023-04-25T08:58:47;6.95;;;4.20;;
61756;SDS011;57225;61.460;24.060;2023-04-25T09:01:34;7.80;;;4.47;;
61756;SDS011;57225;61.460;24.060;2023-04-25T09:04:21;7.43;;;4.10;;
61756;SDS011;57225;61.460;24.060;2023-04-25T09:07:06;4.70;;;3.63;;
61756;SDS011;57225;61.460;24.060;2023-04-25T09:09:50;5.07;;;3.85;;
61756;SDS011;57225;61.460;24.060;2023-04-25T09:12:34;4.38;;;3.30;;
61756;SDS011;57225;61.460;24.060;2023-04-25T09:15:20;6.28;;;3.72;;
61756;SDS011;57225;61.460;24.060;2023-04-25T09:18:05;4.18;;;3.35;;
61756;SDS011;57225;61.460;24.060;2023-04-25T09:20:49;7.47;;;3.67;;
61756;SDS011;57225;61.460;24.060;2023-04-25T09:23:45;5.18;;;3.80;;
61756;SDS011;57225;61.460;24.060;2023-04-25T09:26:32;7.10;;;4.30;;
61756;SDS011;57225;61.460;24.060;2023-04-25T09:29:17;5.20;;;3.53;;
61756;SDS011;57225;61.460;24.060;2023-04-25T09:32:11;4.38;;;3.20;;
61756;SDS011;57225;61.460;24.060;2023-04-25T09:34:58;4.70;;;3.90;;
61756;SDS011;57225;61.460;24.060;2023-04-25T09:37:43;5.32;;;3.80;;
61756;SDS011;57225;61.460;24.060;2023-04-25T09:40:30;5.53;;;3.53;;
61756;SDS011;57225;61.460;24.060;2023-04-25T09:43:24;8.85;;;4.03;;
61756;SDS011;57225;61.460;24.060;2023-04-25T09:46:10;6.28;;;4.07;;
61756;SDS011;57225;61.460;24.060;2023-04-25T09:48:55;6.95;;;4.60;;
61756;SDS011;57225;61.460;24.060;2023-04-25T09:51:39;7.50;;;4.93;;
61756;SDS011;57225;61.460;24.060;2023-04-25T09:54:24;6.68;;;4.82;;
61756;SDS011;57225;61.460;24.060;2023-04-25T09:57:16;8.95;;;5.53;;
61756;SDS011;57225;61.460;24.060;2023-04-25T10:00:04;10.35;;;5.40;;
61756;SDS011;57225;61.460;24.060;2023-04-25T10:05:38;6.32;;;4.38;;
61756;SDS011;57225;61.460;24.060;2023-04-25T10:08:27;9.15;;;4.57;;
61756;SDS011;57225;61.460;24.060;2023-04-25T10:11:15;6.65;;;4.45;;
61756;SDS011;57225;61.460;24.060;2023-04-25T10:14:01;7.55;;;4.50;;
61756;SDS011;57225;61.460;24.060;2023-04-25T10:16:46;5.55;;;4.43;;
61756;SDS011;57225;61.460;24.060;2023-04-25T10:19:31;8.10;;;4.63;;
61756;SDS011;57225;61.460;24.060;2023-04-25T10:22:35;6.78;;;4.53;;
61756;SDS011;57225;61.460;24.060;2023-04-25T10:28:09;7.85;;;4.53;;
61756;SDS011;57225;61.460;24.060;2023-04-25T10:30:57;6.32;;;4.45;;
61756;SDS011;57225;61.460;24.060;2023-04-25T10:33:48;7.10;;;5.00;;
61756;SDS011;57225;61.460;24.060;2023-04-25T10:36:33;7.35;;;4.95;;
61756;SDS011;57225;61.460;24.060;2023-04-25T10:39:22;5.72;;;4.43;;
61756;SDS011;57225;61.460;24.060;2023-04-25T10:42:07;6.35;;;4.13;;
61756;SDS011;57225;61.460;24.060;2023-04-25T10:45:01;7.20;;;4.57;;
61756;SDS011;57225;61.460;24.060;2023-04-25T10:47:49;7.55;;;4.57;;
61756;SDS011;57225;61.460;24.060;2023-04-25T10:50:37;7.38;;;4.90;;
61756;SDS011;57225;61.460;24.060;2023-04-25T10:53:24;5.65;;;4.13;;
61756;SDS011;57225;61.460;24.060;2023-04-25T10:56:19;10.18;;;4.05;;
61756;SDS011;57225;61.460;24.060;2023-04-25T10:59:13;5.07;;;3.97;;
61756;SDS011;57225;61.460;24.060;2023-04-25T11:01:59;5.68;;;3.60;;
61756;SDS011;57225;61.460;24.060;2023-04-25T11:04:56;6.75;;;3.92;;
61756;SDS011;57225;61.460;24.060;2023-04-25T11:07:54;4.60;;;3.70;;
61756;SDS011;57225;61.460;24.060;2023-04-25T11:10:44;5.10;;;3.95;;
61756;SDS011;57225;61.460;24.060;2023-04-25T11:13:30;7.50;;;3.80;;
61756;SDS011;57225;61.460;24.060;2023-04-25T11:16:16;4.70;;;3.45;;
61756;SDS011;57225;61.460;24.060;2023-04-25T11:19:00;5.25;;;3.60;;
61756;SDS011;57225;61.460;24.060;2023-04-25T11:21:46;21.60;;;4.50;;
61756;SDS011;57225;61.460;24.060;2023-04-25T11:24:31;12.52;;;3.70;;
61756;SDS011;57225;61.460;24.060;2023-04-25T11:27:18;9.90;;;3.92;;
61756;SDS011;57225;61.460;24.060;2023-04-25T11:30:12;6.00;;;3.80;;
61756;SDS011;57225;61.460;24.060;2023-04-25T11:32:59;5.28;;;3.28;;
61756;SDS011;57225;61.460;24.060;2023-04-25T11:35:44;7.55;;;3.65;;
61756;SDS011;57225;61.460;24.060;2023-04-25T11:38:29;5.45;;;3.45;;
61756;SDS011;57225;61.460;24.060;2023-04-25T11:41:15;4.35;;;3.17;;
61756;SDS011;57225;61.460;24.060;2023-04-25T11:43:59;4.75;;;3.13;;
61756;SDS011;57225;61.460;24.060;2023-04-25T11:46:45;4.63;;;3.10;;
61756;SDS011;57225;61.460;24.060;2023-04-25T11:49:30;5.75;;;3.15;;
61756;SDS011;57225;61.460;24.060;2023-04-25T11:52:15;9.32;;;3.78;;
61756;SDS011;57225;61.460;24.060;2023-04-25T11:55:00;4.50;;;3.00;;
61756;SDS011;57225;61.460;24.060;2023-04-25T11:57:46;6.57;;;2.95;;
61756;SDS011;57225;61.460;24.060;2023-04-25T12:00:35;5.97;;;3.00;;
61756;SDS011;57225;61.460;24.060;2023-04-25T12:03:20;9.65;;;3.80;;
61756;SDS011;57225;61.460;24.060;2023-04-25T12:06:07;6.47;;;3.10;;
61756;SDS011;57225;61.460;24.060;2023-04-25T12:09:01;6.70;;;2.88;;
61756;SDS011;57225;61.460;24.060;2023-04-25T12:11:48;7.00;;;3.13;;
61756;SDS011;57225;61.460;24.060;2023-04-25T12:14:37;9.25;;;3.20;;
61756;SDS011;57225;61.460;24.060;2023-04-25T12:17:21;7.70;;;3.67;;
61756;SDS011;57225;61.460;24.060;2023-04-25T12:20:10;13.05;;;3.50;;
61756;SDS011;57225;61.460;24.060;2023-04-25T12:22:57;14.07;;;3.80;;
61756;SDS011;57225;61.460;24.060;2023-04-25T12:25:42;11.75;;;3.63;;
61756;SDS011;57225;61.460;24.060;2023-04-25T12:28:28;15.55;;;3.67;;
61756;SDS011;57225;61.460;24.060;2023-04-25T12:31:16;6.85;;;3.38;;
61756;SDS011;57225;61.460;24.060;2023-04-25T12:34:01;8.05;;;3.53;;
61756;SDS011;57225;61.460;24.060;2023-04-25T12:36:47;22.92;;;4.57;;
61756;SDS011;57225;61.460;24.060;2023-04-25T12:39:33;14.25;;;4.13;;
61756;SDS011;57225;61.460;24.060;2023-04-25T12:42:18;28.95;;;4.45;;
61756;SDS011;57225;61.460;24.060;2023-04-25T12:45:02;17.95;;;4.28;;
61756;SDS011;57225;61.460;24.060;2023-04-25T12:47:47;17.27;;;3.85;;
61756;SDS011;57225;61.460;24.060;2023-04-25T12:50:32;36.38;;;4.63;;
61756;SDS011;57225;61.460;24.060;2023-04-25T12:53:18;7.47;;;3.30;;
61756;SDS011;57225;61.460;24.060;2023-04-25T12:56:04;11.05;;;3.83;;
61756;SDS011;57225;61.460;24.060;2023-04-25T12:58:49;8.82;;;3.50;;
61756;SDS011;57225;61.460;24.060;2023-04-25T13:01:33;13.90;;;3.55;;
61756;SDS011;57225;61.460;24.060;2023-04-25T13:04:18;9.35;;;3.97;;
61756;SDS011;57225;61.460;24.060;2023-04-25T13:07:04;7.47;;;3.72;;
61756;SDS011;57225;61.460;24.060;2023-04-25T13:09:49;17.23;;;4.63;;
61756;SDS011;57225;61.460;24.060;2023-04-25T13:12:33;14.00;;;4.28;;
61756;SDS011;57225;61.460;24.060;2023-04-25T13:15:19;24.90;;;4.85;;
61756;SDS011;57225;61.460;24.060;2023-04-25T13:18:03;9.35;;;3.70;;
61756;SDS011;57225;61.460;24.060;2023-04-25T13:20:50;14.20;;;3.70;;
61756;SDS011;57225;61.460;24.060;2023-04-25T13:23:34;11.75;;;3.97;;
61756;SDS011;57225;61.460;24.060;2023-04-25T13:26:19;15.05;;;4.10;;
61756;SDS011;57225;61.460;24.060;2023-04-25T13:29:04;17.13;;;4.03;;
61756;SDS011;57225;61.460;24.060;2023-04-25T13:31:48;19.80;;;4.00;;
61756;SDS011;57225;61.460;24.060;2023-04-25T13:34:32;13.00;;;3.65;;
61756;SDS011;57225;61.460;24.060;2023-04-25T13:37:17;24.15;;;4.60;;
61756;SDS011;57225;61.460;24.060;2023-04-25T13:40:02;10.75;;;3.72;;
61756;SDS011;57225;61.460;24.060;2023-04-25T13:42:48;21.15;;;4.30;;
61756;SDS011;57225;61.460;24.060;2023-04-25T13:45:33;9.45;;;3.67;;
61756;SDS011;57225;61.460;24.060;2023-04-25T13:48:18;20.98;;;3.95;;
61756;SDS011;57225;61.460;24.060;2023-04-25T13:51:02;15.23;;;4.10;;
61756;SDS011;57225;61.460;24.060;2023-04-25T13:53:48;17.05;;;3.80;;
61756;SDS011;57225;61.460;24.060;2023-04-25T13:56:32;5.43;;;2.90;;
61756;SDS011;57225;61.460;24.060;2023-04-25T13:59:17;17.00;;;3.63;;
61756;SDS011;57225;61.460;24.060;2023-04-25T14:02:01;9.07;;;3.70;;
61756;SDS011;57225;61.460;24.060;2023-04-25T14:04:46;17.73;;;4.75;;
61756;SDS011;57225;61.460;24.060;2023-04-25T14:07:30;9.35;;;3.70;;
61756;SDS011;57225;61.460;24.060;2023-04-25T14:10:17;18.35;;;4.03;;
61756;SDS011;57225;61.460;24.060;2023-04-25T14:13:01;14.55;;;4.15;;
61756;SDS011;57225;61.460;24.060;2023-04-25T14:15:46;14.93;;;3.83;;
61756;SDS011;57225;61.460;24.060;2023-04-25T14:18:31;11.50;;;3.45;;
61756;SDS011;57225;61.460;24.060;2023-04-25T14:21:15;12.57;;;4.05;;
61756;SDS011;57225;61.460;24.060;2023-04-25T14:24:00;8.60;;;3.90;;
61756;SDS011;57225;61.460;24.060;2023-04-25T14:26:44;8.52;;;3.97;;
61756;SDS011;57225;61.460;24.060;2023-04-25T14:29:29;24.75;;;3.80;;
61756;SDS011;57225;61.460;24.060;2023-04-25T14:32:14;9.70;;;3.45;;
61756;SDS011;57225;61.460;24.060;2023-04-25T14:34:59;11.27;;;3.50;;
61756;SDS011;57225;61.460;24.060;2023-04-25T14:37:44;7.43;;;3.13;;
61756;SDS011;57225;61.460;24.060;2023-04-25T14:40:28;14.00;;;3.40;;
61756;SDS011;57225;61.460;24.060;2023-04-25T14:43:14;10.30;;;3.20;;
61756;SDS011;57225;61.460;24.060;2023-04-25T14:45:58;7.38;;;3.67;;
61756;SDS011;57225;61.460;24.060;2023-04-25T14:48:43;11.68;;;3.45;;
61756;SDS011;57225;61.460;24.060;2023-04-25T14:51:29;9.00;;;3.35;;
61756;SDS011;57225;61.460;24.060;2023-04-25T14:54:14;9.43;;;3.45;;
61756;SDS011;57225;61.460;24.060;2023-04-25T14:56:59;14.15;;;3.70;;
61756;SDS011;57225;61.460;24.060;2023-04-25T14:59:45;20.40;;;4.30;;
61756;SDS011;57225;61.460;24.060;2023-04-25T15:02:30;8.13;;;3.53;;
61756;SDS011;57225;61.460;24.060;2023-04-25T15:05:14;10.23;;;3.20;;
61756;SDS011;57225;61.460;24.060;2023-04-25T15:07:59;14.00;;;3.25;;
61756;SDS011;57225;61.460;24.060;2023-04-25T15:10:46;11.40;;;3.40;;
61756;SDS011;57225;61.460;24.060;2023-04-25T15:13:31;8.77;;;3.53;;
61756;SDS011;57225;61.460;24.060;2023-04-25T15:16:15;7.15;;;3.20;;
61756;SDS011;57225;61.460;24.060;2023-04-25T15:19:00;8.60;;;3.33;;
61756;SDS011;57225;61.460;24.060;2023-04-25T15:21:47;7.78;;;2.97;;
61756;SDS011;57225;61.460;24.060;2023-04-25T15:24:31;19.48;;;3.55;;
61756;SDS011;57225;61.460;24.060;2023-04-25T15:27:16;14.23;;;3.55;;
61756;SDS011;57225;61.460;24.060;2023-04-25T15:30:01;6.72;;;3.17;;
61756;SDS011;57225;61.460;24.060;2023-04-25T15:32:46;13.00;;;3.33;;
61756;SDS011;57225;61.460;24.060;2023-04-25T15:35:31;7.93;;;3.30;;
61756;SDS011;57225;61.460;24.060;2023-04-25T15:38:15;9.95;;;3.30;;
61756;SDS011;57225;61.460;24.060;2023-04-25T15:40:59;16.17;;;3.42;;
61756;SDS011;57225;61.460;24.060;2023-04-25T15:43:46;9.60;;;3.25;;
61756;SDS011;57225;61.460;24.060;2023-04-25T15:46:31;16.00;;;3.30;;
61756;SDS011;57225;61.460;24.060;2023-04-25T15:49:16;14.55;;;3.28;;
61756;SDS011;57225;61.460;24.060;2023-04-25T15:52:02;10.73;;;3.22;;
61756;SDS011;57225;61.460;24.060;2023-04-25T15:54:46;9.18;;;3.38;;
61756;SDS011;57225;61.460;24.060;2023-04-25T15:57:32;10.20;;;3.40;;
61756;SDS011;57225;61.460;24.060;2023-04-25T16:00:17;8.00;;;3.50;;
61756;SDS011;57225;61.460;24.060;2023-04-25T16:03:04;10.98;;;3.55;;
61756;SDS011;57225;61.460;24.060;2023-04-25T16:05:50;7.28;;;3.58;;
61756;SDS011;57225;61.460;24.060;2023-04-25T16:08:35;9.07;;;3.33;;
61756;SDS011;57225;61.460;24.060;2023-04-25T16:11:20;14.55;;;3.70;;
61756;SDS011;57225;61.460;24.060;2023-04-25T16:14:04;13.40;;;3.63;;
61756;SDS011;57225;61.460;24.060;2023-04-25T16:16:49;9.80;;;3.20;;
61756;SDS011;57225;61.460;24.060;2023-04-25T16:19:34;17.17;;;3.55;;
61756;SDS011;57225;61.460;24.060;2023-04-25T16:22:21;11.38;;;3.03;;
61756;SDS011;57225;61.460;24.060;2023-04-25T16:25:06;7.13;;;2.83;;